Time;durP1;ratioP1;P1;durP2;ratioP2;P2;SDS_P1;SDS_P2;PMS_P1;PMS_P2;Temp;Humidity;BMP_temperature;BMP_pressure;BME280_temperature;BME280_humidity;BME280_pressure;Samples;Min_cycle;Max_cycle;Signal;HPM_P1;HPM_P2
2021/09/03 00:00:59;;;;;;;11.83;7.43;;;11.00;99.90;;;;;;4985761;28;20207;-85
2021/09/03 00:03:24;;;;;;;9.97;8.00;;;10.90;99.90;;;;;;4985743;28;20235;-85
2021/09/03 00:05:50;;;;;;;13.57;8.10;;;11.00;99.90;;;;;;4986283;28;20211;-85
2021/09/03 00:08:16;;;;;;;12.33;8.13;;;11.00;99.90;;;;;;4986770;28;20595;-85
2021/09/03 00:10:41;;;;;;;11.27;7.90;;;11.00;99.90;;;;;;4986948;28;20192;-85
2021/09/03 00:13:07;;;;;;;9.90;8.07;;;10.90;99.90;;;;;;4986215;28;20183;-85
2021/09/03 00:15:33;;;;;;;12.03;7.80;;;10.90;99.90;;;;;;4987652;28;20244;-85
2021/09/03 00:18:02;;;;;;;10.73;8.80;;;10.90;99.90;;;;;;4985572;28;20184;-85
2021/09/03 00:20:28;;;;;;;12.00;8.77;;;10.90;99.90;;;;;;4986430;28;20208;-85
2021/09/03 00:22:54;;;;;;;10.23;7.63;;;10.90;99.90;;;;;;4988036;28;20187;-85
2021/09/03 00:25:19;;;;;;;11.20;7.67;;;10.90;99.90;;;;;;4986672;28;20207;-85
2021/09/03 00:27:45;;;;;;;10.17;7.83;;;10.90;99.90;;;;;;4992687;28;20212;-84
2021/09/03 00:30:11;;;;;;;9.07;7.57;;;10.80;99.90;;;;;;4992896;28;20196;-84
2021/09/03 00:32:37;;;;;;;11.70;7.97;;;10.80;99.90;;;;;;4983145;28;20243;-85
2021/09/03 00:35:04;;;;;;;13.13;9.53;;;10.80;99.90;;;;;;4994744;28;20220;-84
2021/09/03 00:37:30;;;;;;;16.90;11.23;;;10.80;99.90;;;;;;4977462;28;20603;-83
2021/09/03 00:39:55;;;;;;;13.57;9.40;;;10.80;99.90;;;;;;4978229;28;20200;-84
2021/09/03 00:42:21;;;;;;;16.53;11.00;;;10.80;99.90;;;;;;4978665;28;20609;-84
2021/09/03 00:44:47;;;;;;;13.83;9.00;;;10.70;99.90;;;;;;4982447;28;20694;-85
2021/09/03 00:47:12;;;;;;;12.37;9.77;;;10.70;99.90;;;;;;4986043;28;20231;-85
2021/09/03 00:49:38;;;;;;;11.23;8.47;;;10.70;99.90;;;;;;4986054;28;20208;-85
2021/09/03 00:52:06;;;;;;;13.20;9.10;;;10.80;99.90;;;;;;4985094;28;20185;-85
2021/09/03 00:54:32;;;;;;;11.70;8.93;;;10.80;99.90;;;;;;4984763;28;20207;-85
2021/09/03 00:56:58;;;;;;;10.90;8.17;;;10.80;99.90;;;;;;4986107;28;20195;-85
2021/09/03 00:59:24;;;;;;;13.27;9.40;;;10.80;99.90;;;;;;4983399;28;20210;-85
2021/09/03 01:01:49;;;;;;;11.40;8.43;;;10.80;99.90;;;;;;4984799;28;20263;-85
2021/09/03 01:04:15;;;;;;;11.27;8.57;;;10.70;99.90;;;;;;4982724;28;20189;-85
2021/09/03 01:06:41;;;;;;;14.57;8.43;;;10.70;99.90;;;;;;4984583;28;20239;-85
2021/09/03 01:09:06;;;;;;;10.87;8.03;;;10.70;99.90;;;;;;4983466;28;20204;-85
2021/09/03 01:11:32;;;;;;;9.93;8.00;;;10.70;99.90;;;;;;4982766;28;20639;-85
2021/09/03 01:13:58;;;;;;;13.87;8.27;;;10.70;99.90;;;;;;4983374;28;20184;-85
2021/09/03 01:16:24;;;;;;;13.60;8.67;;;10.70;99.90;;;;;;4984691;28;20177;-85
2021/09/03 01:18:51;;;;;;;10.27;7.93;;;10.70;99.90;;;;;;4983930;28;20216;-85
2021/09/03 01:21:17;;;;;;;10.23;7.60;;;10.70;99.90;;;;;;4984438;28;20191;-85
2021/09/03 01:23:43;;;;;;;9.73;7.93;;;10.70;99.90;;;;;;4983937;28;20181;-85
2021/09/03 01:26:10;;;;;;;8.67;7.50;;;10.70;99.90;;;;;;4982912;28;20628;-85
2021/09/03 01:28:36;;;;;;;11.73;8.77;;;10.70;99.90;;;;;;4982355;28;20211;-85
2021/09/03 01:31:02;;;;;;;12.07;8.27;;;10.70;99.90;;;;;;4984691;28;20176;-85
2021/09/03 01:33:28;;;;;;;10.67;7.80;;;10.60;99.90;;;;;;4985089;28;20185;-85
2021/09/03 01:35:53;;;;;;;9.97;7.97;;;10.60;99.90;;;;;;4982608;28;20207;-85
2021/09/03 01:38:19;;;;;;;10.70;7.73;;;10.60;99.90;;;;;;4982689;28;20197;-85
2021/09/03 01:40:45;;;;;;;9.73;7.63;;;10.60;99.90;;;;;;4984642;28;20232;-85
2021/09/03 01:43:10;;;;;;;10.13;7.77;;;10.60;99.90;;;;;;4983720;28;20188;-85
2021/09/03 01:45:36;;;;;;;11.60;8.13;;;10.60;99.90;;;;;;4986108;28;20188;-85
2021/09/03 01:48:02;;;;;;;11.17;7.87;;;10.60;99.90;;;;;;4985524;28;20184;-85
2021/09/03 01:50:28;;;;;;;9.47;7.67;;;10.60;99.90;;;;;;4988115;28;20200;-84
2021/09/03 01:52:53;;;;;;;9.67;7.33;;;10.60;99.90;;;;;;4985743;28;20204;-85
2021/09/03 01:55:19;;;;;;;9.47;6.83;;;10.50;99.90;;;;;;4984247;28;20181;-84
2021/09/03 01:57:45;;;;;;;12.53;8.33;;;10.50;99.90;;;;;;4984371;28;20192;-85
2021/09/03 02:00:11;;;;;;;10.50;7.80;;;10.50;99.90;;;;;;4984999;28;20236;-85
2021/09/03 02:02:38;;;;;;;11.50;7.47;;;10.50;99.90;;;;;;4984069;28;20214;-85
2021/09/03 02:05:04;;;;;;;9.43;7.20;;;10.50;99.90;;;;;;4984241;28;20182;-85
2021/09/03 02:07:30;;;;;;;13.43;7.93;;;10.50;99.90;;;;;;4984266;28;20283;-85
2021/09/03 02:09:55;;;;;;;10.20;7.87;;;10.50;99.90;;;;;;4983860;28;20200;-85
2021/09/03 02:12:21;;;;;;;8.63;7.17;;;10.40;99.90;;;;;;4984002;28;20571;-85
2021/09/03 02:14:47;;;;;;;8.80;6.83;;;10.40;99.90;;;;;;4985150;28;20181;-85
2021/09/03 02:17:13;;;;;;;10.93;7.27;;;10.30;99.90;;;;;;4985922;28;20264;-85
2021/09/03 02:19:39;;;;;;;10.10;6.83;;;10.30;99.90;;;;;;4988541;28;20245;-85
2021/09/03 02:22:04;;;;;;;8.47;6.43;;;10.20;99.90;;;;;;4991658;28;20273;-85
2021/09/03 02:24:30;;;;;;;10.83;7.60;;;10.20;99.90;;;;;;4992335;28;20194;-84
2021/09/03 02:26:57;;;;;;;9.33;7.07;;;10.20;99.90;;;;;;4985791;28;20308;-85
2021/09/03 02:29:23;;;;;;;10.37;6.83;;;10.10;99.90;;;;;;4982070;28;20228;-85
2021/09/03 02:31:48;;;;;;;9.30;7.17;;;10.10;99.90;;;;;;4983067;28;20173;-85
2021/09/03 02:34:14;;;;;;;10.87;7.30;;;10.10;99.90;;;;;;4980378;28;20228;-85
2021/09/03 02:36:40;;;;;;;12.57;7.60;;;10.10;99.90;;;;;;4980581;28;20191;-85
2021/09/03 02:39:06;;;;;;;10.03;7.47;;;10.10;99.90;;;;;;4979789;28;20214;-85
2021/09/03 02:41:32;;;;;;;11.23;7.77;;;10.10;99.90;;;;;;4979874;28;20185;-85
2021/09/03 02:43:58;;;;;;;9.20;7.10;;;10.10;99.90;;;;;;4979245;28;20209;-85
2021/09/03 02:46:24;;;;;;;9.13;7.00;;;10.10;99.90;;;;;;4978668;28;20294;-85
2021/09/03 02:48:50;;;;;;;9.17;7.20;;;10.10;99.90;;;;;;4977778;28;20196;-85
2021/09/03 02:51:16;;;;;;;12.33;7.90;;;10.10;99.90;;;;;;4976984;28;20183;-85
2021/09/03 02:53:42;;;;;;;9.37;7.10;;;10.10;99.90;;;;;;4976404;28;20274;-85
2021/09/03 02:56:08;;;;;;;8.37;6.67;;;10.10;99.90;;;;;;4984548;28;20176;-85
2021/09/03 02:58:34;;;;;;;14.37;7.50;;;10.10;99.90;;;;;;4985933;28;20219;-85
2021/09/03 03:00:59;;;;;;;12.63;7.03;;;10.10;99.90;;;;;;4982893;28;20188;-85
2021/09/03 03:03:25;;;;;;;12.23;7.27;;;10.10;99.90;;;;;;4982857;28;20181;-85
2021/09/03 03:05:51;;;;;;;9.23;7.00;;;10.00;99.90;;;;;;4982903;28;20185;-85
2021/09/03 03:08:16;;;;;;;10.63;7.27;;;10.00;99.90;;;;;;4983481;28;20181;-85
2021/09/03 03:10:42;;;;;;;9.30;7.43;;;10.00;99.90;;;;;;4982260;28;20181;-85
2021/09/03 03:13:20;;;;;;;9.80;6.90;;;10.00;99.90;;;;;;4982431;28;20591;-85
2021/09/03 03:15:49;;;;;;;9.10;6.67;;;10.00;99.90;;;;;;4982484;28;20156;-85
2021/09/03 03:18:16;;;;;;;10.87;7.30;;;10.00;99.90;;;;;;4982160;28;20181;-85
2021/09/03 03:20:43;;;;;;;9.30;7.20;;;10.00;99.90;;;;;;4983397;28;20177;-85
2021/09/03 03:23:09;;;;;;;9.30;7.00;;;10.00;99.90;;;;;;4982070;28;20180;-85
2021/09/03 03:25:35;;;;;;;11.07;7.03;;;10.00;99.90;;;;;;4982912;28;20204;-85
2021/09/03 03:28:00;;;;;;;8.53;6.60;;;9.90;99.90;;;;;;4981038;28;20186;-85
2021/09/03 03:30:26;;;;;;;8.50;6.53;;;9.90;99.90;;;;;;4981360;28;20275;-85
2021/09/03 03:32:52;;;;;;;9.50;6.70;;;10.00;99.90;;;;;;4979237;28;20173;-84
2021/09/03 03:35:17;;;;;;;8.90;7.03;;;9.90;99.90;;;;;;4975841;28;20204;-85
2021/09/03 03:37:43;;;;;;;9.07;6.83;;;9.90;99.90;;;;;;4976221;28;20188;-85
2021/09/03 03:40:10;;;;;;;8.20;6.27;;;9.90;99.90;;;;;;4974261;28;20212;-84
2021/09/03 03:42:35;;;;;;;9.03;6.60;;;9.90;99.90;;;;;;4974000;28;20274;-85
2021/09/03 03:45:01;;;;;;;7.73;6.60;;;9.90;99.90;;;;;;4975282;28;20258;-84
2021/09/03 03:47:27;;;;;;;8.43;6.60;;;9.90;99.90;;;;;;4974913;28;20205;-84
2021/09/03 03:49:52;;;;;;;9.07;6.47;;;9.80;99.90;;;;;;4975765;28;20200;-85
2021/09/03 03:52:18;;;;;;;9.20;6.87;;;9.80;99.90;;;;;;4986493;28;20209;-85
2021/09/03 03:54:43;;;;;;;9.63;6.97;;;9.80;99.90;;;;;;4985474;28;20631;-86
2021/09/03 03:57:09;;;;;;;8.03;6.47;;;9.80;99.90;;;;;;4983769;28;20641;-86
2021/09/03 03:59:35;;;;;;;9.87;6.30;;;9.80;99.90;;;;;;4983799;28;20197;-87
2021/09/03 04:02:00;;;;;;;7.63;6.80;;;9.70;99.90;;;;;;4983945;28;20548;-86
2021/09/03 04:04:26;;;;;;;7.87;6.67;;;9.70;99.90;;;;;;4986008;28;20256;-86
2021/09/03 04:06:52;;;;;;;7.70;6.47;;;9.80;99.90;;;;;;4987116;28;20229;-86
2021/09/03 04:09:17;;;;;;;9.03;6.90;;;9.80;99.90;;;;;;4987653;28;20201;-86
2021/09/03 04:11:46;;;;;;;7.20;6.07;;;9.80;99.90;;;;;;4988741;28;20196;-86
2021/09/03 04:14:12;;;;;;;11.60;6.70;;;9.70;99.90;;;;;;4982873;28;20213;-86
2021/09/03 04:16:38;;;;;;;8.73;6.43;;;9.80;99.90;;;;;;4983615;28;20600;-86
2021/09/03 04:19:04;;;;;;;8.77;6.53;;;9.70;99.90;;;;;;4983240;28;20197;-86
2021/09/03 04:21:30;;;;;;;8.67;6.50;;;9.70;99.90;;;;;;4981371;28;20192;-86
2021/09/03 04:23:55;;;;;;;7.73;6.67;;;9.70;99.90;;;;;;4981566;28;20208;-86
2021/09/03 04:26:21;;;;;;;10.90;7.00;;;9.70;99.90;;;;;;4982333;28;20618;-86
2021/09/03 04:28:47;;;;;;;8.37;6.03;;;9.60;99.90;;;;;;4981551;28;20200;-85
2021/09/03 04:31:13;;;;;;;8.97;6.97;;;9.60;99.90;;;;;;4981247;28;20173;-86
2021/09/03 04:33:38;;;;;;;9.20;5.87;;;9.60;99.90;;;;;;4980606;28;20577;-86
2021/09/03 04:36:04;;;;;;;8.50;6.57;;;9.60;99.90;;;;;;4980279;28;20196;-86
2021/09/03 04:38:31;;;;;;;8.57;6.40;;;9.70;99.90;;;;;;4980292;28;20339;-86
2021/09/03 04:40:57;;;;;;;9.97;7.07;;;9.60;99.90;;;;;;4990280;28;20676;-86
2021/09/03 04:43:23;;;;;;;15.70;7.73;;;9.60;99.90;;;;;;4983972;28;20195;-86
2021/09/03 04:45:49;;;;;;;11.00;7.23;;;9.60;99.90;;;;;;4985519;28;20186;-86
2021/09/03 04:48:14;;;;;;;9.03;6.63;;;9.60;99.90;;;;;;4984129;28;20208;-87
2021/09/03 04:50:41;;;;;;;9.13;6.20;;;9.60;99.90;;;;;;4983004;28;20184;-86
2021/09/03 04:53:07;;;;;;;10.10;7.10;;;9.60;99.90;;;;;;4984053;28;20184;-86
2021/09/03 04:55:32;;;;;;;8.93;6.60;;;9.60;99.90;;;;;;4984532;28;20173;-86
2021/09/03 04:57:58;;;;;;;8.83;6.63;;;9.60;99.90;;;;;;4983035;28;20192;-86
2021/09/03 05:00:24;;;;;;;7.83;5.77;;;9.60;99.90;;;;;;4985076;28;20232;-86
2021/09/03 05:02:50;;;;;;;10.97;6.63;;;9.60;99.90;;;;;;4982832;28;20186;-86
2021/09/03 05:05:16;;;;;;;9.10;6.27;;;9.60;99.90;;;;;;4984949;28;20606;-86
2021/09/03 05:07:42;;;;;;;8.93;7.03;;;9.60;99.90;;;;;;4983066;28;20205;-85
2021/09/03 05:10:09;;;;;;;10.50;6.37;;;9.60;99.90;;;;;;4984668;28;20208;-86
2021/09/03 05:12:36;;;;;;;9.03;6.63;;;9.60;99.90;;;;;;4984045;28;20185;-86
2021/09/03 05:15:08;;;;;;;9.23;6.77;;;9.60;99.90;;;;;;4983933;28;20185;-85
2021/09/03 05:17:34;;;;;;;8.43;6.27;;;9.60;99.90;;;;;;4983839;28;20557;-86
2021/09/03 05:20:00;;;;;;;8.73;6.30;;;9.50;99.90;;;;;;4983731;28;20298;-86
2021/09/03 05:22:26;;;;;;;9.87;6.53;;;9.50;99.90;;;;;;4983900;28;20224;-86
2021/09/03 05:24:51;;;;;;;10.10;6.43;;;9.50;99.90;;;;;;4983462;28;20188;-86
2021/09/03 05:27:17;;;;;;;12.53;6.60;;;9.50;99.90;;;;;;4985051;28;20205;-86
2021/09/03 05:29:42;;;;;;;11.13;6.47;;;9.60;99.90;;;;;;4983141;28;20629;-86
2021/09/03 05:32:08;;;;;;;9.37;6.37;;;9.60;99.90;;;;;;4983874;28;20548;-85
2021/09/03 05:34:34;;;;;;;9.57;6.80;;;9.60;99.90;;;;;;4983321;28;20192;-86
2021/09/03 05:36:59;;;;;;;10.40;6.77;;;9.70;99.90;;;;;;4984356;28;20635;-85
2021/09/03 05:39:25;;;;;;;9.97;6.67;;;9.70;99.90;;;;;;4984357;28;20297;-86
2021/09/03 05:41:51;;;;;;;10.53;7.10;;;9.80;99.90;;;;;;4984679;28;20185;-86
2021/09/03 05:44:16;;;;;;;12.03;7.10;;;9.80;99.90;;;;;;4983404;28;20342;-86
2021/09/03 05:46:42;;;;;;;9.70;6.80;;;9.80;99.90;;;;;;4983814;28;20213;-85
2021/09/03 05:49:07;;;;;;;8.73;6.90;;;9.90;99.90;;;;;;4983115;28;20214;-85
2021/09/03 05:51:33;;;;;;;10.03;6.50;;;10.00;99.90;;;;;;4984355;28;20184;-86
2021/09/03 05:54:01;;;;;;;9.73;7.07;;;10.00;99.90;;;;;;4985384;28;20189;-85
2021/09/03 05:56:26;;;;;;;10.10;6.70;;;10.10;99.90;;;;;;4983405;28;20576;-85
2021/09/03 05:58:52;;;;;;;8.70;6.20;;;10.20;99.90;;;;;;4983543;28;20244;-85
2021/09/03 06:01:18;;;;;;;7.97;6.57;;;10.20;99.90;;;;;;4983180;28;20182;-85
2021/09/03 06:03:43;;;;;;;8.80;7.20;;;10.30;99.90;;;;;;4985141;28;20212;-85
2021/09/03 06:06:09;;;;;;;8.93;6.50;;;10.30;99.90;;;;;;4985715;28;20223;-86
2021/09/03 06:08:34;;;;;;;9.93;7.23;;;10.40;99.90;;;;;;4983141;28;20222;-85
2021/09/03 06:11:00;;;;;;;11.10;6.63;;;10.40;99.90;;;;;;4983678;28;20220;-85
2021/09/03 06:13:26;;;;;;;8.13;6.60;;;10.40;99.90;;;;;;4985545;28;20173;-86
2021/09/03 06:15:51;;;;;;;9.77;6.83;;;10.50;99.90;;;;;;4983730;28;20183;-86
2021/09/03 06:18:17;;;;;;;10.07;7.03;;;10.60;99.90;;;;;;4985289;28;20179;-86
2021/09/03 06:20:42;;;;;;;8.77;6.80;;;10.60;99.90;;;;;;4985801;28;20485;-86
2021/09/03 06:23:08;;;;;;;7.73;6.73;;;10.70;99.90;;;;;;4985578;28;20512;-85
2021/09/03 06:25:34;;;;;;;13.07;6.83;;;10.70;99.90;;;;;;4987157;28;20192;-86
2021/09/03 06:28:00;;;;;;;9.87;6.53;;;10.80;99.90;;;;;;4986699;28;20204;-86
2021/09/03 06:30:25;;;;;;;9.13;6.80;;;10.90;99.90;;;;;;4988228;28;20184;-85
2021/09/03 06:32:51;;;;;;;12.83;7.33;;;11.00;99.90;;;;;;4981243;28;20184;-85
2021/09/03 06:35:17;;;;;;;11.43;6.50;;;11.10;99.90;;;;;;4982692;28;20193;-85
2021/09/03 06:37:43;;;;;;;10.97;7.50;;;11.20;99.90;;;;;;4982868;28;20179;-86
2021/09/03 06:40:08;;;;;;;10.50;6.20;;;11.30;99.90;;;;;;4982124;28;20218;-85
2021/09/03 06:42:34;;;;;;;8.60;6.60;;;11.40;99.90;;;;;;4981470;28;20276;-86
2021/09/03 06:45:00;;;;;;;11.47;6.43;;;11.50;99.90;;;;;;4981296;28;20188;-85
2021/09/03 06:47:29;;;;;;;8.27;6.60;;;11.60;99.90;;;;;;4982674;28;20204;-85
2021/09/03 06:49:55;;;;;;;8.80;6.43;;;11.70;99.90;;;;;;4981279;28;20204;-86
2021/09/03 06:52:28;;;;;;;8.97;6.23;;;11.70;99.90;;;;;;4980516;28;20180;-85
2021/09/03 06:54:55;;;;;;;6.97;5.80;;;11.80;99.90;;;;;;4981061;28;20226;-85
2021/09/03 06:57:21;;;;;;;7.83;6.30;;;11.80;99.90;;;;;;4979963;28;20188;-85
2021/09/03 06:59:47;;;;;;;11.17;6.77;;;11.90;99.90;;;;;;4980007;28;20203;-85
2021/09/03 07:02:14;;;;;;;9.20;6.63;;;12.10;99.90;;;;;;4978255;28;20190;-85
2021/09/03 07:04:40;;;;;;;6.37;5.50;;;12.10;99.90;;;;;;4984746;28;20164;-86
2021/09/03 07:07:06;;;;;;;9.53;6.13;;;12.20;99.90;;;;;;4985621;28;20207;-85
2021/09/03 07:09:31;;;;;;;11.20;6.07;;;12.40;99.90;;;;;;4984171;28;20222;-85
2021/09/03 07:11:57;;;;;;;7.90;5.70;;;12.50;99.90;;;;;;4982415;28;20183;-85
2021/09/03 07:14:23;;;;;;;10.37;6.43;;;12.60;99.90;;;;;;4982837;28;20189;-85
2021/09/03 07:16:48;;;;;;;6.67;5.10;;;12.80;99.90;;;;;;4982752;28;20187;-85
2021/09/03 07:19:14;;;;;;;7.27;5.33;;;12.90;99.90;;;;;;4981922;28;20221;-86
2021/09/03 07:21:40;;;;;;;7.43;5.30;;;13.10;99.90;;;;;;4982718;28;20181;-85
2021/09/03 07:24:05;;;;;;;7.27;5.77;;;13.20;99.90;;;;;;4984457;28;20182;-85
2021/09/03 07:26:32;;;;;;;6.20;5.07;;;13.40;99.90;;;;;;4986336;28;20278;-85
2021/09/03 07:28:58;;;;;;;8.37;5.10;;;13.50;99.90;;;;;;4988392;28;20685;-85
2021/09/03 07:31:24;;;;;;;6.50;5.23;;;13.70;99.90;;;;;;4987303;28;20670;-85
2021/09/03 07:33:50;;;;;;;7.90;5.17;;;13.80;99.90;;;;;;4988096;28;20173;-85
2021/09/03 07:36:16;;;;;;;7.10;5.00;;;13.90;99.90;;;;;;4988881;28;20176;-85
2021/09/03 07:38:42;;;;;;;7.30;5.10;;;14.00;99.90;;;;;;4987526;28;20223;-85
2021/09/03 07:41:08;;;;;;;5.40;4.90;;;14.20;99.90;;;;;;4988746;28;20180;-85
2021/09/03 07:43:34;;;;;;;9.03;5.57;;;14.40;99.90;;;;;;4987131;28;20211;-85
2021/09/03 07:45:59;;;;;;;6.10;4.77;;;14.60;99.90;;;;;;4987396;28;20550;-85
2021/09/03 07:48:25;;;;;;;6.33;4.87;;;14.70;99.90;;;;;;4987326;28;20547;-85
2021/09/03 07:50:51;;;;;;;7.70;4.90;;;14.80;99.90;;;;;;4987772;28;20184;-85
2021/09/03 07:53:16;;;;;;;8.30;5.10;;;14.90;99.90;;;;;;4987944;28;20187;-85
2021/09/03 07:55:42;;;;;;;6.17;4.90;;;15.10;99.90;;;;;;4989172;28;20643;-85
2021/09/03 07:58:09;;;;;;;7.73;4.50;;;15.30;99.90;;;;;;4989264;28;20192;-85
2021/09/03 08:00:36;;;;;;;6.23;4.27;;;15.50;99.90;;;;;;4986528;28;20267;-85
2021/09/03 08:03:02;;;;;;;5.43;4.60;;;15.70;99.90;;;;;;4986575;28;20192;-85
2021/09/03 08:05:29;;;;;;;6.90;4.50;;;15.90;99.90;;;;;;4988135;28;20276;-85
2021/09/03 08:07:54;;;;;;;8.20;5.00;;;16.10;99.90;;;;;;4987527;28;20634;-85
2021/09/03 08:10:20;;;;;;;7.87;4.67;;;16.30;99.90;;;;;;4989366;28;20200;-85
2021/09/03 08:12:46;;;;;;;7.73;5.33;;;16.50;99.90;;;;;;4989324;28;20177;-85
2021/09/03 08:15:13;;;;;;;7.53;4.87;;;16.60;99.90;;;;;;4988817;28;20701;-85
2021/09/03 08:17:39;;;;;;;9.80;5.93;;;17.00;99.90;;;;;;4987979;28;20201;-85
2021/09/03 08:20:07;;;;;;;8.87;4.87;;;17.20;99.90;;;;;;4987351;28;20204;-85
2021/09/03 08:22:32;;;;;;;11.00;6.17;;;17.30;99.90;;;;;;4987751;28;20184;-85
2021/09/03 08:24:58;;;;;;;8.83;5.53;;;17.50;99.90;;;;;;4986801;28;20238;-85
2021/09/03 08:27:24;;;;;;;11.27;6.00;;;17.70;99.90;;;;;;4990608;28;20343;-85
2021/09/03 08:29:50;;;;;;;8.03;5.93;;;17.70;99.90;;;;;;4990059;28;20552;-85
2021/09/03 08:32:16;;;;;;;7.23;6.00;;;17.80;99.90;;;;;;4990950;28;20188;-85
2021/09/03 08:34:42;;;;;;;11.73;5.90;;;18.00;99.90;;;;;;4988107;28;20221;-85
2021/09/03 08:37:08;;;;;;;9.93;6.20;;;18.30;99.90;;;;;;4986864;28;20190;-85
2021/09/03 08:39:34;;;;;;;14.40;6.30;;;18.40;99.90;;;;;;4988276;28;20204;-85
2021/09/03 08:42:00;;;;;;;9.30;6.47;;;18.60;99.90;;;;;;4987113;28;20189;-85
2021/09/03 08:44:30;;;;;;;8.37;6.17;;;18.60;99.90;;;;;;4989612;28;20194;-86
2021/09/03 08:46:56;;;;;;;12.07;5.73;;;18.70;99.90;;;;;;4991408;28;20278;-85
2021/09/03 08:49:22;;;;;;;7.67;6.33;;;18.90;99.90;;;;;;4994959;28;20190;-86
2021/09/03 08:51:48;;;;;;;10.40;5.90;;;18.90;99.90;;;;;;4988116;28;20178;-85
2021/09/03 08:54:14;;;;;;;8.23;6.60;;;19.00;99.90;;;;;;4985805;28;20542;-85
2021/09/03 08:56:40;;;;;;;9.07;6.30;;;19.30;99.90;;;;;;4989791;28;20185;-85
2021/09/03 08:59:06;;;;;;;11.70;6.60;;;19.40;99.90;;;;;;4988175;28;20202;-85
2021/09/03 09:01:31;;;;;;;7.30;6.53;;;19.70;99.90;;;;;;4983641;28;20187;-85
2021/09/03 09:04:14;;;;;;;11.17;6.63;;;19.90;99.90;;;;;;4984899;28;20277;-85
2021/09/03 09:07:02;;;;;;;7.97;6.77;;;20.20;99.90;;;;;;4986060;28;20224;-84
2021/09/03 09:09:32;;;;;;;8.33;6.40;;;20.30;99.90;;;;;;4988147;28;20200;-85
2021/09/03 09:12:12;;;;;;;7.30;5.83;;;20.50;99.90;;;;;;4986849;28;20661;-85
2021/09/03 09:14:57;;;;;;;10.37;6.53;;;20.60;99.90;;;;;;4985774;28;20195;-85
2021/09/03 09:17:41;;;;;;;7.20;6.50;;;20.70;99.90;;;;;;4987253;28;20189;-85
2021/09/03 09:20:13;;;;;;;8.10;6.33;;;20.90;99.90;;;;;;4986920;28;20208;-85
2021/09/03 09:22:59;;;;;;;12.33;7.37;;;21.00;99.90;;;;;;4985162;28;20195;-85
2021/09/03 09:25:34;;;;;;;10.17;6.23;;;21.10;99.90;;;;;;4985452;28;20187;-85
2021/09/03 09:28:21;;;;;;;8.30;6.40;;;21.10;99.90;;;;;;4984809;28;20716;-85
2021/09/03 09:30:49;;;;;;;7.93;6.80;;;21.40;99.90;;;;;;4983420;28;20169;-85
2021/09/03 09:33:19;;;;;;;7.93;6.67;;;21.40;99.90;;;;;;4983727;28;20177;-85
2021/09/03 09:35:47;;;;;;;6.97;6.27;;;21.40;99.90;;;;;;4993875;28;20208;-85
2021/09/03 09:38:16;;;;;;;7.93;6.10;;;21.60;99.90;;;;;;4989054;28;20206;-84
2021/09/03 09:40:47;;;;;;;6.77;6.07;;;21.80;99.90;;;;;;4988761;28;20746;-85
2021/09/03 09:43:28;;;;;;;7.00;6.30;;;22.10;99.90;;;;;;4987807;28;20187;-85
2021/09/03 09:46:18;;;;;;;7.63;6.10;;;22.30;99.90;;;;;;4986393;28;20173;-85
2021/09/03 09:48:50;;;;;;;8.33;6.30;;;22.30;99.90;;;;;;4985669;28;20196;-85
2021/09/03 09:51:29;;;;;;;7.90;5.90;;;22.40;99.90;;;;;;4985805;28;20184;-84
2021/09/03 09:54:02;;;;;;;6.93;6.23;;;22.50;99.90;;;;;;4982483;28;20612;-85
2021/09/03 09:56:33;;;;;;;10.77;5.93;;;22.50;99.90;;;;;;4981278;28;20180;-83
2021/09/03 09:59:01;;;;;;;7.20;5.73;;;22.70;99.90;;;;;;4981745;28;20204;-84
2021/09/03 10:01:28;;;;;;;10.90;5.87;;;22.90;99.90;;;;;;4979260;28;20195;-84
2021/09/03 10:03:54;;;;;;;7.20;6.07;;;23.00;99.90;;;;;;4979726;28;20180;-84
2021/09/03 10:06:22;;;;;;;7.50;6.37;;;23.10;99.90;;;;;;4978076;28;20204;-85
2021/09/03 10:08:48;;;;;;;6.73;6.03;;;23.20;99.90;;;;;;4985467;28;20241;-85
2021/09/03 10:11:16;;;;;;;6.93;5.90;;;23.40;99.90;;;;;;4983832;28;20184;-85
2021/09/03 10:13:42;;;;;;;6.27;5.50;;;23.50;99.90;;;;;;4983732;28;20181;-85
2021/09/03 10:16:08;;;;;;;6.33;5.17;;;23.70;99.90;;;;;;4985875;28;20175;-85
2021/09/03 10:18:38;;;;;;;7.53;5.30;;;23.80;99.90;;;;;;4985276;28;20240;-85
2021/09/03 10:21:04;;;;;;;6.43;5.17;;;23.80;99.90;;;;;;4989357;28;20192;-85
2021/09/03 10:23:52;;;;;;;7.40;5.00;;;23.90;99.90;;;;;;4988560;28;20180;-85
2021/09/03 10:26:22;;;;;;;7.90;5.53;;;24.10;99.90;;;;;;4984675;28;20206;-85
2021/09/03 10:28:47;;;;;;;7.70;5.90;;;24.40;99.90;;;;;;4980520;28;20203;-85
2021/09/03 10:31:18;;;;;;;6.97;6.13;;;24.40;99.90;;;;;;4979946;28;20173;-85
2021/09/03 10:33:46;;;;;;;6.40;5.73;;;24.20;99.90;;;;;;4979905;28;20178;-85
2021/09/03 10:36:12;;;;;;;6.27;5.27;;;23.90;99.90;;;;;;4980537;28;20216;-84
2021/09/03 10:38:42;;;;;;;6.20;4.90;;;24.20;99.90;;;;;;4980786;28;20208;-85
2021/09/03 10:41:08;;;;;;;7.23;5.03;;;24.50;99.90;;;;;;4980141;28;20172;-85
2021/09/03 10:43:45;;;;;;;6.90;5.87;;;24.50;99.90;;;;;;4980588;28;20176;-85
2021/09/03 10:46:13;;;;;;;5.93;5.43;;;24.50;99.90;;;;;;4981006;28;20250;-85
2021/09/03 10:48:39;;;;;;;6.43;5.83;;;24.60;99.90;;;;;;4980934;28;20205;-85
2021/09/03 10:51:05;;;;;;;6.87;5.90;;;24.60;99.90;;;;;;4981023;28;20188;-83
2021/09/03 10:53:37;;;;;;;6.37;4.90;;;24.70;99.90;;;;;;4982245;28;20224;-83
2021/09/03 10:56:23;;;;;;;9.53;4.90;;;25.00;99.90;;;;;;4983113;28;20580;-83
2021/09/03 10:58:57;;;;;;;7.50;5.30;;;25.20;99.90;;;;;;4982909;28;20207;-84
2021/09/03 11:01:29;;;;;;;5.97;5.00;;;25.50;99.90;;;;;;4986554;28;20224;-83
2021/09/03 11:04:05;;;;;;;7.13;5.43;;;25.60;99.90;;;;;;4991189;28;20716;-83
2021/09/03 11:06:36;;;;;;;6.17;5.37;;;25.70;99.90;;;;;;4992929;28;20265;-84
2021/09/03 11:09:03;;;;;;;5.63;5.03;;;25.70;99.90;;;;;;4984273;28;20295;-84
2021/09/03 11:11:37;;;;;;;8.23;5.43;;;25.70;99.90;;;;;;4983603;28;20196;-85
2021/09/03 11:14:10;;;;;;;8.90;8.00;;;25.90;99.90;;;;;;4985316;28;20185;-84
2021/09/03 11:16:43;;;;;;;21.83;17.63;;;25.90;99.90;;;;;;4986400;28;20180;-85
2021/09/03 11:19:14;;;;;;;13.40;9.83;;;26.10;99.90;;;;;;4986719;28;20211;-85
2021/09/03 11:21:51;;;;;;;133.83;108.40;;;26.30;99.90;;;;;;4987236;28;20165;-84
2021/09/03 11:24:22;;;;;;;54.27;45.03;;;26.00;99.90;;;;;;4986166;28;20166;-85
2021/09/03 11:26:50;;;;;;;20.43;17.80;;;25.90;99.90;;;;;;4985481;28;20209;-85
2021/09/03 11:29:31;;;;;;;9.43;7.50;;;26.00;99.90;;;;;;4986583;28;20257;-85
2021/09/03 11:32:10;;;;;;;10.30;8.33;;;26.10;99.90;;;;;;4984632;28;20189;-85
2021/09/03 11:34:46;;;;;;;42.20;29.30;;;26.10;99.90;;;;;;4984563;28;20208;-85
2021/09/03 11:37:31;;;;;;;15.97;13.00;;;26.10;99.90;;;;;;4983785;28;20630;-86
2021/09/03 11:39:56;;;;;;;7.90;6.70;;;26.20;99.90;;;;;;4982464;28;20198;-87
2021/09/03 11:42:29;;;;;;;8.00;5.77;;;26.30;99.90;;;;;;4981243;28;20186;-87
2021/09/03 11:45:01;;;;;;;11.37;6.40;;;26.30;99.90;;;;;;4982964;28;20261;-86
2021/09/03 11:47:38;;;;;;;8.87;6.53;;;26.10;99.90;;;;;;4981564;28;20579;-86
2021/09/03 11:50:16;;;;;;;7.47;6.10;;;26.20;99.90;;;;;;4981528;28;20198;-85
2021/09/03 11:52:43;;;;;;;6.13;5.53;;;26.40;99.90;;;;;;4981824;28;20173;-86
2021/09/03 11:55:16;;;;;;;7.93;6.73;;;26.40;99.90;;;;;;4981882;28;20181;-86
2021/09/03 11:57:53;;;;;;;8.67;6.03;;;26.50;99.90;;;;;;4981987;28;20173;-86
2021/09/03 12:00:20;;;;;;;7.13;6.43;;;26.70;99.90;;;;;;4983114;28;20729;-86
2021/09/03 12:02:48;;;;;;;24.07;20.30;;;26.90;99.90;;;;;;4982124;28;20184;-86
2021/09/03 12:05:14;;;;;;;14.63;12.87;;;27.10;99.90;;;;;;4983734;28;20209;-84
2021/09/03 12:07:40;;;;;;;11.13;9.90;;;27.10;99.90;;;;;;4984395;28;20206;-84
2021/09/03 12:10:06;;;;;;;7.90;7.10;;;26.90;99.90;;;;;;4987362;28;20230;-83
2021/09/03 12:12:33;;;;;;;7.13;6.43;;;26.80;99.90;;;;;;4990838;28;20207;-84
2021/09/03 12:15:02;;;;;;;7.80;7.10;;;26.70;99.90;;;;;;4988548;28;20572;-84
2021/09/03 12:17:39;;;;;;;13.17;7.10;;;26.70;99.90;;;;;;4988838;28;20180;-84
2021/09/03 12:20:13;;;;;;;7.60;6.77;;;26.80;99.90;;;;;;4983698;28;20562;-83
2021/09/03 12:22:53;;;;;;;7.43;6.70;;;26.90;99.90;;;;;;4981588;28;20188;-83
2021/09/03 12:25:33;;;;;;;7.10;5.53;;;26.90;99.90;;;;;;4983115;28;20173;-84
2021/09/03 12:28:19;;;;;;;6.97;5.33;;;27.00;99.90;;;;;;4982782;28;20259;-85
2021/09/03 12:30:51;;;;;;;9.23;5.60;;;27.10;99.90;;;;;;4984656;28;20167;-85
2021/09/03 12:33:28;;;;;;;8.37;6.60;;;27.00;99.90;;;;;;4984069;28;20173;-85
2021/09/03 12:35:58;;;;;;;7.57;6.77;;;27.20;99.90;;;;;;4982166;28;20670;-85
2021/09/03 12:38:43;;;;;;;7.57;6.87;;;27.30;99.90;;;;;;4982127;28;20282;-85
2021/09/03 12:41:21;;;;;;;8.00;6.83;;;27.60;99.90;;;;;;4983821;28;20175;-85
2021/09/03 12:43:52;;;;;;;9.20;7.27;;;27.60;99.90;;;;;;4984675;28;20187;-86
2021/09/03 12:46:21;;;;;;;7.67;6.97;;;27.40;99.90;;;;;;4984726;28;20287;-86
2021/09/03 12:49:02;;;;;;;7.43;6.73;;;26.80;99.90;;;;;;4981386;28;20284;-85